Time;durP1;ratioP1;P1;durP2;ratioP2;P2;SDS_P1;SDS_P2;PMS_P1;PMS_P2;Temp;Humidity;BMP_temperature;BMP_pressure;BME280_temperature;BME280_humidity;BME280_pressure;Samples;Min_cycle;Max_cycle;Signal;HPM_P1;HPM_P2
2024/04/07 00:01:16;;;;;;;4.67;2.23;;;;;;;19.30;43.29;100065.81;5007790;28;20519;-84
2024/04/07 00:04:03;;;;;;;2.17;1.60;;;;;;;19.30;43.14;100060.94;5003858;28;20436;-83
2024/04/07 00:06:50;;;;;;;2.80;1.77;;;;;;;19.26;43.22;100060.53;5004708;28;20462;-83
2024/04/07 00:09:38;;;;;;;5.67;1.53;;;;;;;19.23;43.13;100061.63;5006812;28;20449;-84
2024/04/07 00:12:26;;;;;;;4.53;1.80;;;;;;;19.26;43.49;100065.38;4996212;28;20435;-84
2024/04/07 00:15:12;;;;;;;4.63;2.03;;;;;;;19.24;43.48;100079.19;5014577;28;20442;-84
2024/04/07 00:17:59;;;;;;;7.20;1.70;;;;;;;19.23;43.29;100067.22;4995869;28;20500;-84
2024/04/07 00:20:45;;;;;;;3.00;1.90;;;;;;;19.25;43.14;100075.84;5012587;28;20441;-84
2024/04/07 00:23:33;;;;;;;4.43;1.80;;;;;;;19.23;43.39;100078.44;5011811;28;20450;-83
2024/04/07 00:26:19;;;;;;;2.80;1.63;;;;;;;19.24;43.36;100082.75;5009058;28;20457;-84
2024/04/07 00:29:07;;;;;;;2.50;2.03;;;;;;;19.21;43.13;100081.03;5010006;28;20640;-83
2024/04/07 00:31:54;;;;;;;5.40;1.77;;;;;;;19.21;43.51;100071.91;5016660;28;20446;-84
2024/04/07 00:34:40;;;;;;;3.50;1.80;;;;;;;19.20;43.40;100059.94;5017456;28;20438;-83
2024/04/07 00:37:28;;;;;;;3.00;1.57;;;;;;;19.19;43.37;100072.44;5021205;28;20521;-84
2024/04/07 00:40:14;;;;;;;2.53;1.63;;;;;;;19.23;43.17;100067.22;5016077;28;20443;-83
2024/04/07 00:43:06;;;;;;;3.70;1.60;;;;;;;19.25;43.53;100075.84;5018031;28;20438;-84
2024/04/07 00:45:54;;;;;;;6.13;1.80;;;;;;;19.17;43.50;100080.63;5017776;28;20817;-83
2024/04/07 00:48:42;;;;;;;1.87;1.67;;;;;;;19.16;43.46;100087.53;5013308;28;20446;-83
2024/04/07 00:51:28;;;;;;;5.37;1.90;;;;;;;19.13;43.85;100105.41;5013741;28;20816;-83
2024/04/07 00:54:15;;;;;;;3.80;2.03;;;;;;;19.11;43.67;100105.22;5014884;28;20821;-83
2024/04/07 00:57:01;;;;;;;3.70;1.70;;;;;;;19.10;43.69;100098.13;5011678;28;20465;-84
2024/04/07 00:59:48;;;;;;;3.03;1.67;;;;;;;19.07;44.10;100104.81;5016532;28;21881;-84
2024/04/07 01:02:35;;;;;;;3.83;1.87;;;;;;;19.07;44.00;100121.63;5016743;28;20790;-84
2024/04/07 01:05:23;;;;;;;6.70;1.67;;;;;;;19.07;43.85;100127.22;5022746;28;20435;-84
2024/04/07 01:08:10;;;;;;;7.60;1.80;;;;;;;19.11;43.77;100127.63;5020878;28;20486;-83
2024/04/07 01:10:57;;;;;;;3.90;1.63;;;;;;;19.07;43.71;100130.03;5018770;28;20454;-84
2024/04/07 01:13:43;;;;;;;2.23;1.50;;;;;;;19.09;43.72;100151.88;5020391;28;20528;-83
2024/04/07 01:16:31;;;;;;;3.93;1.83;;;;;;;19.10;44.20;100154.13;5014671;28;20477;-84
2024/04/07 01:19:19;;;;;;;5.13;1.83;;;;;;;19.19;43.97;100173.28;5017963;28;20899;-83
2024/04/07 01:22:06;;;;;;;6.13;1.80;;;;;;;19.14;44.01;100179.75;5015885;28;20966;-84
2024/04/07 01:24:53;;;;;;;1.90;1.70;;;;;;;19.10;43.96;100175.81;5016882;28;20817;-83
2024/04/07 01:27:40;;;;;;;2.63;1.60;;;;;;;19.10;44.26;100182.16;5016540;28;20458;-84
2024/04/07 01:30:27;;;;;;;2.77;1.80;;;;;;;19.03;44.20;100177.22;5012352;28;20443;-83
2024/04/07 01:33:13;;;;;;;3.17;1.70;;;;;;;18.99;44.57;100190.81;5017655;28;20457;-84
2024/04/07 01:35:59;;;;;;;3.10;1.80;;;;;;;19.01;44.61;100196.63;5013413;28;20447;-84
2024/04/07 01:38:46;;;;;;;4.00;2.10;;;;;;;19.01;44.82;100213.44;5003117;28;20902;-84
2024/04/07 01:41:34;;;;;;;2.87;1.50;;;;;;;18.95;44.75;100204.44;5010570;28;20804;-84
2024/04/07 01:44:21;;;;;;;3.17;2.20;;;;;;;18.95;44.97;100221.22;5014456;28;20439;-84
2024/04/07 01:47:07;;;;;;;5.40;1.90;;;;;;;18.94;45.28;100225.31;5012645;28;20895;-83
2024/04/07 01:49:54;;;;;;;3.13;1.80;;;;;;;18.89;45.44;100217.78;5009268;28;20943;-84
2024/04/07 01:52:40;;;;;;;3.50;2.00;;;;;;;18.84;45.63;100210.25;5013136;28;20447;-84
2024/04/07 01:55:27;;;;;;;2.73;2.03;;;;;;;18.83;46.01;100219.97;5012672;28;20478;-85
2024/04/07 01:58:14;;;;;;;5.53;1.93;;;;;;;18.83;45.83;100219.97;5015713;28;20469;-83
2024/04/07 02:01:01;;;;;;;3.73;1.93;;;;;;;18.80;46.03;100243.47;5016838;28;20440;-84
2024/04/07 02:03:48;;;;;;;6.23;1.90;;;;;;;18.78;45.96;100268.44;5011441;28;20560;-84
2024/04/07 02:06:35;;;;;;;6.30;2.57;;;;;;;18.75;46.13;100272.31;5000141;28;20543;-83
2024/04/07 02:09:21;;;;;;;3.13;1.80;;;;;;;18.71;46.06;100252.31;5014800;28;20877;-84
2024/04/07 02:12:08;;;;;;;3.33;1.90;;;;;;;18.71;46.30;100263.50;5017649;28;20527;-84
2024/04/07 02:14:56;;;;;;;3.10;1.43;;;;;;;18.70;46.46;100267.59;5016424;28;20813;-84
2024/04/07 02:17:42;;;;;;;3.90;2.10;;;;;;;18.67;46.65;100268.69;5008635;28;20486;-83
2024/04/07 02:20:29;;;;;;;7.10;1.70;;;;;;;18.69;46.56;100282.91;5014683;28;20466;-84
2024/04/07 02:23:15;;;;;;;3.90;2.10;;;;;;;18.65;47.04;100293.66;5016883;28;20435;-84
2024/04/07 02:26:07;;;;;;;3.20;1.60;;;;;;;18.64;47.12;100303.34;5012915;28;20872;-83
2024/04/07 02:28:53;;;;;;;3.57;2.00;;;;;;;18.59;47.24;100301.44;5013049;28;20447;-84
2024/04/07 02:31:41;;;;;;;2.93;2.00;;;;;;;18.60;47.18;100325.34;5008159;28;20447;-84
2024/04/07 02:34:27;;;;;;;2.23;1.77;;;;;;;18.62;47.12;100333.19;5016188;28;20473;-83
2024/04/07 02:37:14;;;;;;;2.30;1.80;;;;;;;18.76;46.87;100332.66;5008008;28;21147;-83
2024/04/07 02:40:00;;;;;;;8.77;2.40;;;;;;;18.97;45.88;100341.88;5012258;28;20881;-84
2024/04/07 02:42:48;;;;;;;4.43;1.90;;;;;;;19.17;46.35;100357.97;5011783;28;20460;-87
2024/04/07 02:49:06;;;;;;;6.37;2.00;;;;;;;19.58;45.83;100343.28;5006247;28;20439;-86
2024/04/07 02:51:53;;;;;;;5.00;1.90;;;;;;;19.70;45.78;100368.50;5006154;28;20822;-86
2024/04/07 02:54:40;;;;;;;4.13;2.10;;;;;;;19.61;46.33;100378.66;5009980;28;20454;-86
2024/04/07 02:57:26;;;;;;;5.20;1.67;;;;;;;19.67;46.09;100396.84;5011291;28;20473;-85
2024/04/07 03:00:17;;;;;;;3.33;1.90;;;;;;;19.73;46.76;100411.50;5016207;28;20497;-87
2024/04/07 03:03:04;;;;;;;6.17;2.13;;;;;;;19.70;46.86;100395.75;5004932;28;20428;-85
2024/04/07 03:05:52;;;;;;;7.00;1.97;;;;;;;19.74;47.25;100402.53;5007840;28;20439;-84
2024/04/07 03:08:39;;;;;;;7.37;2.10;;;;;;;19.67;47.90;100408.06;5004593;28;20770;-85
2024/04/07 03:11:25;;;;;;;8.83;2.17;;;;;;;19.58;48.51;100428.16;4991410;28;20793;-84
2024/04/07 03:14:15;;;;;;;7.57;2.00;;;;;;;19.66;49.20;100429.00;5002641;28;20512;-86
2024/04/07 03:17:01;;;;;;;4.43;2.47;;;;;;;19.66;49.64;100431.81;5008354;28;20485;-85
2024/04/07 03:19:48;;;;;;;4.03;2.40;;;;;;;19.59;50.21;100454.91;5007556;28;20816;-84
2024/04/07 03:22:37;;;;;;;6.70;2.50;;;;;;;19.62;51.17;100456.59;5002137;28;20460;-85
2024/04/07 03:25:23;;;;;;;5.47;2.40;;;;;;;19.60;51.73;100439.59;5001539;28;20451;-84
2024/04/07 03:28:10;;;;;;;5.90;2.40;;;;;;;19.52;52.12;100449.94;5002794;28;20451;-84
2024/04/07 03:30:57;;;;;;;5.03;2.07;;;;;;;19.50;52.75;100449.75;5001871;28;20450;-84
2024/04/07 03:33:48;;;;;;;10.50;2.50;;;;;;;19.44;52.96;100457.53;5005056;28;20464;-86
2024/04/07 03:36:34;;;;;;;9.97;2.40;;;;;;;19.43;53.25;100472.81;5001175;28;20470;-84
2024/04/07 03:39:23;;;;;;;4.40;2.40;;;;;;;19.42;53.49;100465.72;5004996;28;20596;-85
2024/04/07 03:42:10;;;;;;;3.73;2.20;;;;;;;19.39;53.46;100483.63;4999302;28;20461;-86
2024/04/07 03:44:57;;;;;;;7.50;2.47;;;;;;;19.23;53.94;100506.38;4991028;28;20563;-84
2024/04/07 03:47:44;;;;;;;9.03;2.73;;;;;;;19.26;54.32;100514.47;5001322;28;20470;-85
2024/04/07 03:50:31;;;;;;;5.50;2.10;;;;;;;19.26;54.45;100520.06;4999013;28;20540;-85
2024/04/07 03:53:18;;;;;;;6.63;2.33;;;;;;;19.28;54.54;100523.09;5005468;28;20525;-86
2024/04/07 03:56:06;;;;;;;4.23;2.20;;;;;;;19.21;54.87;100534.94;5001626;28;20431;-85
2024/04/07 03:58:53;;;;;;;5.83;2.60;;;;;;;19.14;54.81;100546.75;5007151;28;20952;-85
2024/04/07 04:01:41;;;;;;;8.90;2.43;;;;;;;19.13;55.37;100550.84;5006088;28;20668;-86
2024/04/07 04:04:28;;;;;;;6.00;3.33;;;;;;;19.14;55.34;100552.34;5011798;28;20820;-86
2024/04/07 04:07:14;;;;;;;10.30;2.53;;;;;;;18.92;55.96;100535.22;5006471;28;20462;-85
2024/04/07 04:10:01;;;;;;;4.40;2.67;;;;;;;19.04;56.01;100519.72;5010236;28;20800;-86
2024/04/07 04:12:49;;;;;;;5.77;2.43;;;;;;;18.94;56.18;100510.97;5013929;28;20443;-85
2024/04/07 04:15:35;;;;;;;4.00;2.67;;;;;;;18.96;56.21;100518.84;5008797;28;20841;-86
2024/04/07 04:18:22;;;;;;;6.57;2.53;;;;;;;18.83;56.67;100522.38;5007722;28;20761;-86
2024/04/07 04:21:10;;;;;;;7.57;3.40;;;;;;;18.77;56.85;100535.75;5011790;28;20794;-86
2024/04/07 04:23:57;;;;;;;8.13;2.87;;;;;;;18.90;56.65;100543.38;5004843;28;20807;-89
2024/04/07 04:26:43;;;;;;;7.10;2.57;;;;;;;18.80;56.71;100523.47;5008318;28;20875;-86
2024/04/07 04:29:32;;;;;;;4.83;2.60;;;;;;;18.79;56.81;100496.75;5011511;28;20863;-87
2024/04/07 04:32:18;;;;;;;6.13;2.23;;;;;;;18.78;56.50;100498.06;5011061;28;20812;-86
2024/04/07 04:35:06;;;;;;;4.40;2.57;;;;;;;18.75;56.71;100515.91;5011179;28;21279;-85
2024/04/07 04:37:52;;;;;;;7.90;2.37;;;;;;;18.75;56.81;100532.69;5006041;28;20550;-87
2024/04/07 04:40:39;;;;;;;5.60;2.53;;;;;;;18.75;56.62;100541.09;5009439;28;21133;-87
2024/04/07 04:43:25;;;;;;;7.17;1.93;;;;;;;18.69;56.78;100543.25;5009594;28;20886;-85
2024/04/07 04:46:14;;;;;;;2.87;1.90;;;;;;;18.68;56.87;100554.97;5005908;28;20517;-86
2024/04/07 04:49:00;;;;;;;9.80;4.83;;;;;;;18.61;57.20;100555.59;5011309;28;20586;-86
2024/04/07 04:51:48;;;;;;;4.40;1.80;;;;;;;18.54;57.28;100556.25;5005590;28;20541;-85
2024/04/07 04:54:36;;;;;;;5.00;2.40;;;;;;;18.57;57.52;100563.56;5008599;28;20506;-84
2024/04/07 04:57:22;;;;;;;4.87;2.70;;;;;;;18.52;57.43;100581.22;5009532;28;20853;-86
2024/04/07 05:00:10;;;;;;;3.93;1.90;;;;;;;18.48;57.48;100575.94;4989685;28;20963;-87
2024/04/07 05:02:58;;;;;;;3.33;1.83;;;;;;;18.51;57.66;100586.06;5003720;28;21006;-86
2024/04/07 05:05:45;;;;;;;6.10;2.00;;;;;;;18.41;57.72;100614.97;5004617;28;20512;-86
2024/04/07 05:08:31;;;;;;;4.83;2.07;;;;;;;18.44;57.81;100608.31;5006561;28;20856;-87
2024/04/07 05:11:18;;;;;;;6.63;2.60;;;;;;;18.46;57.78;100612.06;5001912;28;20848;-87
2024/04/07 05:14:04;;;;;;;8.37;2.10;;;;;;;18.32;58.24;100602.13;5009697;28;20864;-86
2024/04/07 05:16:52;;;;;;;4.60;1.90;;;;;;;18.34;58.29;100621.19;5007538;28;20914;-87
2024/04/07 05:19:40;;;;;;;4.50;1.90;;;;;;;18.36;58.31;100641.72;5007357;28;20952;-86
2024/04/07 05:22:27;;;;;;;4.10;2.23;;;;;;;18.34;58.92;100644.31;5006122;28;20444;-86
2024/04/07 05:25:14;;;;;;;3.40;1.77;;;;;;;18.15;59.17;100626.00;5007077;28;20856;-86
2024/04/07 05:28:00;;;;;;;3.47;1.90;;;;;;;18.02;59.63;100621.09;5007245;28;20940;-87
2024/04/07 05:30:47;;;;;;;3.77;1.80;;;;;;;18.01;59.96;100616.78;5007735;28;20454;-86
2024/04/07 05:33:33;;;;;;;6.30;2.47;;;;;;;17.96;60.01;100603.59;5010989;28;20470;-85
2024/04/07 05:36:21;;;;;;;6.30;2.37;;;;;;;17.94;60.55;100600.59;5010597;28;20462;-87
2024/04/07 05:39:07;;;;;;;4.03;1.90;;;;;;;17.88;61.33;100599.91;5013184;28;20967;-86
2024/04/07 05:41:54;;;;;;;5.87;2.43;;;;;;;17.83;61.66;100600.75;5014343;28;20455;-86
2024/04/07 05:44:40;;;;;;;4.90;1.93;;;;;;;17.84;62.05;100596.66;5013809;28;20445;-85
2024/04/07 05:47:27;;;;;;;7.20;2.10;;;;;;;17.86;62.06;100594.06;5008575;28;20459;-86
2024/04/07 05:50:14;;;;;;;4.57;2.23;;;;;;;17.82;62.48;100582.44;5010683;28;20869;-86
2024/04/07 05:53:02;;;;;;;3.77;2.20;;;;;;;17.79;62.74;100583.50;5012906;28;20927;-87
2024/04/07 05:55:48;;;;;;;3.63;2.43;;;;;;;17.74;63.16;100581.53;5010601;28;20442;-86
2024/04/07 05:58:35;;;;;;;2.77;2.10;;;;;;;17.70;63.64;100589.47;5013792;28;20832;-87
2024/04/07 06:01:21;;;;;;;6.50;2.20;;;;;;;17.71;63.84;100604.97;5008189;28;20828;-86
2024/04/07 06:04:08;;;;;;;3.87;2.20;;;;;;;17.69;64.35;100601.19;5011345;28;20511;-85
2024/04/07 06:06:54;;;;;;;3.23;1.97;;;;;;;17.70;64.34;100613.88;5003907;28;21122;-85
2024/04/07 06:09:42;;;;;;;4.60;2.10;;;;;;;17.71;64.21;100610.56;5006434;28;20817;-87
2024/04/07 06:12:30;;;;;;;6.40;2.30;;;;;;;17.81;64.27;100603.31;5008408;28;20845;-85
2024/04/07 06:15:18;;;;;;;4.67;2.20;;;;;;;17.85;64.02;100608.59;5010941;28;20447;-86
2024/04/07 06:18:04;;;;;;;4.00;2.40;;;;;;;17.90;63.95;100593.78;4988571;28;20475;-85
2024/04/07 06:20:53;;;;;;;3.97;1.97;;;;;;;17.97;64.07;100588.34;4996389;28;20577;-85
2024/04/07 06:23:41;;;;;;;4.87;2.67;;;;;;;18.03;63.77;100597.41;5005846;28;20817;-86
2024/04/07 06:26:29;;;;;;;4.00;2.10;;;;;;;18.03;63.74;100597.41;5005907;28;20812;-87
2024/04/07 06:29:16;;;;;;;3.60;2.27;;;;;;;18.18;63.80;100588.56;5005521;28;20454;-84
2024/04/07 06:32:03;;;;;;;6.50;2.53;;;;;;;18.16;63.14;100577.91;5007809;28;20860;-86
2024/04/07 06:34:50;;;;;;;6.93;2.67;;;;;;;18.14;63.53;100586.06;5009676;28;20442;-86
2024/04/07 06:37:36;;;;;;;3.93;2.37;;;;;;;18.19;63.14;100573.28;5004005;28;20802;-87
2024/04/07 06:40:23;;;;;;;5.47;2.50;;;;;;;18.14;63.18;100574.88;5000691;28;20655;-86
2024/04/07 06:43:10;;;;;;;5.57;2.30;;;;;;;18.07;63.57;100575.47;5003024;28;20526;-86
2024/04/07 06:45:58;;;;;;;3.00;2.30;;;;;;;18.05;63.76;100583.66;5002230;28;20918;-86
2024/04/07 06:48:45;;;;;;;3.33;1.97;;;;;;;18.03;63.97;100580.63;4998244;28;21245;-86
2024/04/07 06:51:31;;;;;;;3.73;3.03;;;;;;;18.08;63.67;100587.44;5006405;28;20454;-87
2024/04/07 06:54:18;;;;;;;5.13;2.90;;;;;;;18.08;63.66;100588.22;5003303;28;20914;-88
2024/04/07 06:57:04;;;;;;;4.10;2.30;;;;;;;18.16;63.50;100589.09;4996779;28;20455;-87
2024/04/07 06:59:55;;;;;;;3.50;2.23;;;;;;;18.24;63.65;100594.84;5009210;28;20849;-86
2024/04/07 07:02:41;;;;;;;2.80;2.10;;;;;;;18.27;63.47;100580.53;5012449;28;20794;-86
2024/04/07 07:05:28;;;;;;;3.67;2.30;;;;;;;18.33;63.06;100597.28;5001773;28;20791;-86
2024/04/07 07:08:15;;;;;;;5.10;2.20;;;;;;;18.48;62.66;100591.97;5000718;28;20948;-86
2024/04/07 07:11:02;;;;;;;5.00;2.57;;;;;;;18.64;61.80;100594.50;5002349;28;20839;-86
2024/04/07 07:13:53;;;;;;;5.90;1.97;;;;;;;18.77;61.59;100602.19;5007267;28;20837;-86
2024/04/07 07:16:41;;;;;;;5.43;2.20;;;;;;;18.91;61.63;100606.53;5002682;28;20980;-87
2024/04/07 07:19:28;;;;;;;5.73;2.40;;;;;;;18.93;61.42;100618.69;5004617;28;20832;-87
2024/04/07 07:22:15;;;;;;;4.93;1.53;;;;;;;19.02;61.19;100623.91;5004154;28;20899;-87
2024/04/07 07:25:02;;;;;;;4.10;1.83;;;;;;;19.13;59.89;100623.69;5003735;28;20512;-86
2024/04/07 07:27:48;;;;;;;2.70;1.90;;;;;;;19.07;59.82;100631.47;5001855;28;20810;-87
2024/04/07 07:30:36;;;;;;;5.77;2.00;;;;;;;19.08;60.09;100644.16;5009037;28;20450;-87
2024/04/07 07:33:23;;;;;;;4.03;1.90;;;;;;;19.02;60.22;100646.31;5008240;28;20777;-86
2024/04/07 07:36:10;;;;;;;2.53;1.90;;;;;;;19.09;59.72;100639.31;5002976;28;20451;-85
2024/04/07 07:39:22;;;;;;;4.70;2.00;;;;;;;19.13;59.77;100634.91;5001171;28;20438;-85
2024/04/07 07:42:33;;;;;;;2.53;2.17;;;;;;;19.25;59.21;100627.88;5004591;28;20493;-88
2024/04/07 07:45:20;;;;;;;4.70;1.90;;;;;;;19.27;58.82;100636.47;5004371;28;20791;-86
2024/04/07 07:48:08;;;;;;;4.47;1.70;;;;;;;19.21;59.23;100635.81;5002907;28;20516;-85
2024/04/07 07:50:55;;;;;;;2.67;1.67;;;;;;;19.23;59.25;100652.84;5006394;28;20564;-87
2024/04/07 07:53:42;;;;;;;2.20;1.83;;;;;;;19.18;59.19;100648.09;5005276;28;20434;-86
2024/04/07 07:56:29;;;;;;;2.77;1.90;;;;;;;19.14;59.27;100653.22;5007185;28;20438;-86
2024/04/07 07:59:16;;;;;;;2.87;1.67;;;;;;;19.17;59.08;100663.38;5005621;28;20808;-86
2024/04/07 08:02:02;;;;;;;2.23;1.70;;;;;;;19.13;59.39;100668.53;5010095;28;20918;-84
2024/04/07 08:04:49;;;;;;;1.90;1.53;;;;;;;19.25;58.47;100671.94;5004304;28;20431;-88
2024/04/07 08:07:38;;;;;;;3.97;2.00;;;;;;;19.28;58.16;100685.63;5003932;28;20623;-85
2024/04/07 08:10:26;;;;;;;2.80;1.57;;;;;;;19.43;57.69;100683.06;5009708;28;20833;-84
2024/04/07 08:13:13;;;;;;;2.83;1.50;;;;;;;19.42;57.76;100673.13;5002214;28;20447;-86
2024/04/07 08:16:00;;;;;;;4.97;1.90;;;;;;;19.53;56.58;100692.59;4998056;28;20450;-86
2024/04/07 08:18:47;;;;;;;4.23;1.83;;;;;;;19.57;57.51;100695.03;5003584;28;20442;-86
2024/04/07 08:21:34;;;;;;;4.00;1.97;;;;;;;19.54;57.24;100702.50;5000828;28;20492;-84
2024/04/07 08:24:23;;;;;;;3.23;1.77;;;;;;;19.73;56.69;100698.31;5008644;28;21070;-85
2024/04/07 08:27:09;;;;;;;3.63;1.77;;;;;;;19.79;56.89;100690.53;5006995;28;20481;-85
2024/04/07 08:29:56;;;;;;;3.63;1.57;;;;;;;19.95;56.41;100708.34;5000950;28;20442;-86
2024/04/07 08:32:44;;;;;;;2.30;1.50;;;;;;;20.01;55.68;100695.72;5000973;28;20446;-86
2024/04/07 08:35:31;;;;;;;3.10;1.60;;;;;;;19.96;56.20;100698.63;4989022;28;20441;-85
2024/04/07 08:38:18;;;;;;;3.40;1.97;;;;;;;20.15;56.06;100699.28;5010200;28;20945;-89
2024/04/07 08:41:09;;;;;;;5.40;2.03;;;;;;;20.30;55.11;100722.69;5002329;28;20665;-86
2024/04/07 08:43:58;;;;;;;3.80;2.07;;;;;;;20.39;55.07;100710.25;5014284;28;20868;-86
2024/04/07 08:46:46;;;;;;;3.80;1.43;;;;;;;20.49;55.65;100709.25;4999119;28;21017;-86
2024/04/07 08:49:35;;;;;;;2.30;2.10;;;;;;;20.72;54.61;100706.72;5007186;28;20820;-87
2024/04/07 08:52:22;;;;;;;2.70;1.50;;;;;;;20.80;53.97;100704.75;5005570;28;20463;-86
2024/04/07 08:55:09;;;;;;;5.70;2.00;;;;;;;20.82;53.55;100702.13;5014352;28;20440;-85
2024/04/07 08:57:57;;;;;;;6.50;2.13;;;;;;;20.91;53.55;100701.69;5009098;28;20474;-86
2024/04/07 09:00:45;;;;;;;4.33;2.13;;;;;;;20.93;53.73;100704.72;5010391;28;20622;-86
2024/04/07 09:03:31;;;;;;;3.80;2.10;;;;;;;20.96;53.45;100698.00;5008538;28;20446;-87
2024/04/07 09:06:19;;;;;;;5.60;2.90;;;;;;;20.95;53.63;100697.25;5016422;28;20888;-86
2024/04/07 09:09:06;;;;;;;4.00;1.50;;;;;;;21.09;53.37;100692.31;5004774;28;20438;-85
2024/04/07 09:11:54;;;;;;;6.17;2.00;;;;;;;21.22;52.95;100692.25;5014981;28;20450;-87
2024/04/07 09:14:45;;;;;;;4.73;2.10;;;;;;;21.30;53.12;100695.88;5001283;28;20493;-84
2024/04/07 09:17:32;;;;;;;5.13;1.50;;;;;;;21.29;51.19;100691.56;5009475;28;20840;-85
2024/04/07 09:20:19;;;;;;;3.27;1.67;;;;;;;21.30;52.14;100698.69;5011261;28;20863;-85
2024/04/07 09:23:06;;;;;;;4.07;1.80;;;;;;;21.49;51.61;100699.22;5015163;28;21134;-86
2024/04/07 09:25:53;;;;;;;4.03;1.80;;;;;;;21.52;52.43;100684.03;5001887;28;20483;-85
2024/04/07 09:28:43;;;;;;;3.60;2.20;;;;;;;21.63;52.18;100687.31;5013216;28;20465;-85
2024/04/07 09:31:31;;;;;;;4.57;2.07;;;;;;;21.80;51.49;100687.66;5008789;28;21623;-85
2024/04/07 09:34:18;;;;;;;3.40;1.30;;;;;;;22.04;46.42;100686.47;5011582;28;20812;-86
2024/04/07 09:37:05;;;;;;;3.67;1.60;;;;;;;21.92;47.77;100699.34;5004046;28;20880;-85
2024/04/07 09:39:52;;;;;;;1.73;1.43;;;;;;;21.93;47.69;100689.59;5011557;28;20474;-85
2024/04/07 09:42:43;;;;;;;3.00;1.70;;;;;;;22.06;45.26;100695.13;5005834;28;20801;-85
2024/04/07 09:45:34;;;;;;;2.87;1.47;;;;;;;22.09;45.58;100697.59;4997871;28;20410;-86
2024/04/07 09:48:23;;;;;;;2.73;1.40;;;;;;;22.03;45.92;100702.59;5012471;28;20825;-84
2024/04/07 09:51:15;;;;;;;3.33;1.63;;;;;;;21.88;45.12;100701.75;5014021;28;20541;-84
2024/04/07 09:54:07;;;;;;;1.60;1.33;;;;;;;21.86;45.83;100698.75;5015807;28;20482;-86
2024/04/07 09:56:55;;;;;;;2.40;1.30;;;;;;;22.06;44.59;100706.38;5009835;28;20477;-84
2024/04/07 09:59:43;;;;;;;2.10;1.27;;;;;;;22.07;43.22;100707.88;5012908;28;20447;-86
2024/04/07 10:02:30;;;;;;;2.37;1.20;;;;;;;22.29;43.46;100696.72;5017914;28;21863;-85
2024/04/07 10:05:18;;;;;;;1.47;1.27;;;;;;;22.48;42.24;100696.44;5009049;28;20979;-84
2024/04/07 10:08:06;;;;;;;2.47;1.20;;;;;;;22.46;42.48;100694.19;5011483;28;20841;-85
2024/04/07 10:10:52;;;;;;;2.10;1.20;;;;;;;22.43;42.23;100688.94;5008832;28;20443;-84
2024/04/07 10:13:39;;;;;;;2.33;1.47;;;;;;;22.63;42.66;100690.88;5006465;28;20901;-85
2024/04/07 10:16:27;;;;;;;3.30;1.50;;;;;;;22.76;41.44;100689.41;5009473;28;20443;-83
2024/04/07 10:19:15;;;;;;;3.30;1.37;;;;;;;22.68;42.15;100694.25;5003784;28;20418;-85
2024/04/07 10:22:04;;;;;;;2.40;1.30;;;;;;;22.68;42.55;100699.88;5011944;28;20825;-84
2024/04/07 10:24:56;;;;;;;1.70;1.20;;;;;;;22.73;42.38;100689.75;5017057;28;20498;-84
2024/04/07 10:27:43;;;;;;;1.53;1.17;;;;;;;22.58;43.02;100688.97;5014222;28;20474;-84
2024/04/07 10:30:34;;;;;;;2.07;1.30;;;;;;;22.56;41.87;100700.06;5016035;28;20820;-85
2024/04/07 10:33:20;;;;;;;2.30;1.23;;;;;;;22.32;42.45;100694.84;5008638;28;20429;-86
2024/04/07 10:36:17;;;;;;;4.10;1.97;;;;;;;22.45;42.52;100686.31;5010352;28;20776;-84
2024/04/07 10:39:04;;;;;;;4.40;2.00;;;;;;;22.49;40.55;100697.94;5012635;28;20431;-86
2024/04/07 10:41:52;;;;;;;3.80;1.63;;;;;;;22.55;41.65;100692.91;5017026;28;20464;-84
2024/04/07 10:44:45;;;;;;;2.37;1.27;;;;;;;22.74;40.56;100680.75;5012072;28;20812;-84
2024/04/07 10:47:33;;;;;;;1.97;1.30;;;;;;;22.93;40.52;100698.06;5009590;28;20454;-87
2024/04/07 10:50:20;;;;;;;2.37;1.50;;;;;;;23.06;40.30;100689.44;5011834;28;20435;-85
2024/04/07 10:53:13;;;;;;;2.03;1.20;;;;;;;23.19;39.81;100686.50;5012779;28;20438;-86
2024/04/07 10:56:07;;;;;;;2.20;1.27;;;;;;;23.12;41.64;100692.84;5022240;28;20447;-85
2024/04/07 10:58:57;;;;;;;3.80;1.40;;;;;;;23.43;40.44;100705.66;5011155;28;20795;-85
2024/04/07 11:01:43;;;;;;;4.03;2.77;;;;;;;23.54;40.12;100708.09;5006424;28;20521;-86
2024/04/07 11:04:32;;;;;;;3.83;1.60;;;;;;;23.46;40.01;100709.44;5002372;28;20442;-86
2024/04/07 11:07:19;;;;;;;3.10;1.53;;;;;;;23.50;40.20;100704.16;5007301;28;20867;-84
2024/04/07 11:10:08;;;;;;;2.30;1.60;;;;;;;23.60;40.57;100703.03;5010226;28;21118;-85
2024/04/07 11:13:02;;;;;;;2.30;1.47;;;;;;;23.66;38.97;100700.75;5001634;28;20817;-86
2024/04/07 11:15:50;;;;;;;2.03;1.47;;;;;;;23.51;41.64;100697.19;5001877;28;20443;-86
2024/04/07 11:18:39;;;;;;;3.43;1.53;;;;;;;23.69;39.51;100699.63;4998982;28;20781;-84
2024/04/07 11:21:27;;;;;;;2.40;1.27;;;;;;;23.57;39.79;100709.78;5002824;28;20843;-85
2024/04/07 11:24:13;;;;;;;1.63;1.30;;;;;;;23.55;39.58;100714.50;5002358;28;20691;-86
2024/04/07 11:27:01;;;;;;;3.37;1.53;;;;;;;23.35;40.41;100707.00;5002065;28;20460;-84
2024/04/07 11:29:50;;;;;;;2.40;1.37;;;;;;;23.37;40.75;100718.44;5007222;28;20880;-86
2024/04/07 11:32:37;;;;;;;3.40;1.77;;;;;;;23.25;40.35;100701.13;5009534;28;20420;-83
2024/04/07 11:35:25;;;;;;;3.60;1.70;;;;;;;23.26;40.61;100702.63;5001092;28;20843;-84
2024/04/07 11:38:15;;;;;;;1.80;1.50;;;;;;;23.33;40.48;100696.25;5002084;28;22455;-83
2024/04/07 11:41:05;;;;;;;3.33;1.30;;;;;;;23.37;39.59;100685.34;5002424;28;20473;-84
2024/04/07 11:43:56;;;;;;;4.13;1.40;;;;;;;23.51;39.56;100700.78;5000902;28;20418;-86
2024/04/07 11:46:44;;;;;;;1.77;1.60;;;;;;;23.31;39.58;100698.91;4999542;28;20497;-85
2024/04/07 11:49:32;;;;;;;2.67;1.37;;;;;;;23.23;39.48;100692.50;4999951;28;20806;-85
2024/04/07 11:52:18;;;;;;;1.40;1.30;;;;;;;23.42;39.95;100692.09;5000165;28;20760;-85
2024/04/07 11:55:09;;;;;;;2.47;1.20;;;;;;;23.58;41.49;100676.69;5002883;28;21165;-86
2024/04/07 11:57:56;;;;;;;2.47;1.27;;;;;;;23.62;39.75;100683.44;4999106;28;20451;-85
2024/04/07 12:00:42;;;;;;;3.30;1.80;;;;;;;23.71;38.92;100680.06;4999687;28;20488;-86
2024/04/07 12:03:30;;;;;;;1.83;1.53;;;;;;;23.67;39.82;100671.19;5004500;28;20807;-85
2024/04/07 12:06:22;;;;;;;1.73;1.60;;;;;;;23.62;39.23;100674.97;4988569;28;20442;-84
2024/04/07 12:09:08;;;;;;;2.60;1.50;;;;;;;23.58;39.74;100676.69;5001153;28;20788;-86
2024/04/07 12:12:17;;;;;;;3.00;1.40;;;;;;;23.63;38.78;100668.00;5002144;28;20785;-86
2024/04/07 12:15:22;;;;;;;1.97;1.30;;;;;;;23.47;39.51;100660.88;5004634;28;21001;-84
2024/04/07 12:18:17;;;;;;;1.80;1.30;;;;;;;23.59;39.55;100662.00;4991141;28;20466;-85
2024/04/07 12:21:08;;;;;;;1.43;1.20;;;;;;;23.73;39.15;100654.81;4999221;28;20450;-86
2024/04/07 12:23:57;;;;;;;4.57;1.33;;;;;;;23.72;39.65;100664.63;5006959;28;20932;-84
2024/04/07 12:26:46;;;;;;;2.70;1.20;;;;;;;23.90;40.08;100651.41;5002691;28;20467;-85
2024/04/07 12:32:47;;;;;;;1.80;1.40;;;;;;;24.38;39.95;100653.69;5005292;28;21009;-86
2024/04/07 12:35:33;;;;;;;2.77;1.27;;;;;;;24.68;39.81;100642.22;5002171;28;20431;-83
2024/04/07 12:38:23;;;;;;;1.67;1.57;;;;;;;24.80;38.58;100634.78;5006263;28;20459;-85
2024/04/07 12:41:12;;;;;;;2.50;1.37;;;;;;;24.54;40.30;100632.50;5018131;28;20448;-84
2024/04/07 12:44:05;;;;;;;3.50;2.13;;;;;;;24.54;40.56;100638.16;5011072;28;20922;-85
2024/04/07 12:46:57;;;;;;;2.53;1.30;;;;;;;24.50;39.76;100640.63;5003738;28;21052;-85
2024/04/07 12:49:44;;;;;;;4.30;1.47;;;;;;;24.56;39.87;100638.34;5005063;28;20888;-83
2024/04/07 12:52:39;;;;;;;2.40;1.30;;;;;;;24.68;38.17;100636.59;5008668;28;20885;-87
2024/04/07 12:55:28;;;;;;;4.80;1.93;;;;;;;24.57;38.93;100627.78;5001467;28;20462;-84
2024/04/07 12:58:15;;;;;;;2.97;1.73;;;;;;;24.47;39.88;100626.88;5007105;28;20879;-85
2024/04/07 13:01:04;;;;;;;4.10;2.50;;;;;;;24.46;40.00;100612.03;5006480;28;20556;-85
2024/04/07 13:03:51;;;;;;;2.83;1.77;;;;;;;24.39;39.49;100615.63;4999871;28;20781;-85
2024/04/07 13:06:39;;;;;;;1.73;1.37;;;;;;;24.49;38.97;100615.75;5001344;28;20450;-85